Aviation Digital Data Service (ADDS)

Output produced by TAFs form (0503 UTC 27 July 2017)
found at http://www.aviationweather.gov/adds/tafs/
 
KSTC 262334Z 2700/2724 34006KT P6SM FEW200 
     FM271700 01006KT P6SM SCT050